Time;durP1;ratioP1;P1;durP2;ratioP2;P2;SDS_P1;SDS_P2;PMS_P1;PMS_P2;Temp;Humidity;BMP_temperature;BMP_pressure;BME280_temperature;BME280_humidity;BME280_pressure;Samples;Min_cycle;Max_cycle;Signal;HPM_P1;HPM_P2
2021/03/12 00:00:36;;;;;;;16.58;7.93;;;;;;;-2.17;53.66;99479.96;306494;113;2203720;-72
2021/03/12 00:01:48;;;;;;;14.72;6.50;;;;;;;-2.18;53.64;99480.94;354296;112;1965027;-73
2021/03/12 00:02:53;;;;;;;20.49;6.57;;;;;;;-2.19;53.60;99481.92;356339;111;1962012;-71
2021/03/12 00:04:10;;;;;;;14.76;7.48;;;;;;;-2.21;53.61;99466.99;356581;111;1961882;-70
2021/03/12 00:05:16;;;;;;;17.27;7.86;;;;;;;-2.19;53.55;99466.05;321083;111;2076006;-71
2021/03/12 00:06:22;;;;;;;14.79;6.50;;;;;;;-2.23;53.60;99473.38;357361;112;1961936;-71
2021/03/12 00:07:27;;;;;;;19.36;7.88;;;;;;;-2.23;53.62;99478.67;357543;112;1961622;-71
2021/03/12 00:08:42;;;;;;;15.09;7.32;;;;;;;-2.21;53.48;99480.22;340456;111;2333969;-72
2021/03/12 00:09:47;;;;;;;15.16;8.26;;;;;;;-2.21;53.50;99466.16;325263;112;2217849;-72
2021/03/12 00:10:54;;;;;;;14.62;7.65;;;;;;;-2.23;53.63;99468.09;360099;112;1962061;-71
2021/03/12 00:12:00;;;;;;;18.71;7.57;;;;;;;-2.24;53.66;99472.55;361685;111;1962034;-72
2021/03/12 00:13:19;;;;;;;14.15;7.08;;;;;;;-2.23;53.62;99458.34;332959;111;2210021;-72
2021/03/12 00:14:24;;;;;;;15.06;7.90;;;;;;;-2.25;53.65;99452.36;327685;111;2672994;-71
2021/03/12 00:15:30;;;;;;;28.90;6.31;;;;;;;-2.24;53.64;99464.61;337882;111;1963011;-70
2021/03/12 00:16:37;;;;;;;14.21;7.54;;;;;;;-2.25;53.58;99455.01;358201;111;1963023;-71
2021/03/12 00:17:45;;;;;;;14.84;8.61;;;;;;;-2.25;53.68;99448.85;311030;112;2212916;-71
2021/03/12 00:18:51;;;;;;;19.12;7.93;;;;;;;-2.27;53.69;99441.06;356568;112;1961929;-70
2021/03/12 00:20:10;;;;;;;15.28;7.56;;;;;;;-2.27;53.63;99453.45;353345;112;1963008;-70
2021/03/12 00:21:16;;;;;;;14.50;7.19;;;;;;;-2.28;53.73;99454.41;345413;109;2240031;-71
2021/03/12 00:22:22;;;;;;;14.69;7.19;;;;;;;-2.28;53.79;99462.34;363622;109;1962943;-71
2021/03/12 00:23:28;;;;;;;16.61;8.06;;;;;;;-2.26;53.68;99463.06;362597;109;1961877;-70
2021/03/12 00:24:34;;;;;;;18.84;7.49;;;;;;;-2.27;53.70;99438.41;331671;109;2596944;-70
2021/03/12 00:25:45;;;;;;;18.41;8.78;;;;;;;-2.26;53.69;99439.25;354291;111;1961951;-71
2021/03/12 00:27:02;;;;;;;16.74;8.07;;;;;;;-2.29;53.76;99435.05;351709;112;1963062;-71
2021/03/12 00:28:12;;;;;;;14.38;7.33;;;;;;;-2.28;53.87;99415.55;314314;112;2176071;-72
2021/03/12 00:29:18;;;;;;;17.86;8.32;;;;;;;-2.30;53.86;99429.87;338073;117;1961969;-71
2021/03/12 00:30:26;;;;;;;14.86;7.82;;;;;;;-2.27;53.78;99416.42;309804;116;2965074;-71
2021/03/12 00:31:31;;;;;;;15.48;7.56;;;;;;;-2.29;53.83;99399.83;316667;119;1962119;-70
2021/03/12 00:32:37;;;;;;;19.58;8.83;;;;;;;-2.29;53.69;99405.95;333014;120;1961978;-70
2021/03/12 00:33:43;;;;;;;19.04;7.02;;;;;;;-2.29;53.74;99429.77;336511;117;1962073;-70
2021/03/12 00:35:00;;;;;;;14.26;7.88;;;;;;;-2.30;53.83;99414.87;319053;117;1962966;-70
2021/03/12 00:36:07;;;;;;;17.33;8.21;;;;;;;-2.28;53.69;99418.20;352949;113;1962049;-71
2021/03/12 00:37:12;;;;;;;16.78;8.71;;;;;;;-2.28;53.74;99439.36;341479;111;2206008;-70
2021/03/12 00:38:19;;;;;;;18.07;7.65;;;;;;;-2.28;53.76;99417.37;355488;111;1963876;-70
2021/03/12 00:39:26;;;;;;;14.51;6.94;;;;;;;-2.26;53.62;99402.20;356835;111;1963798;-71
2021/03/12 00:40:43;;;;;;;19.22;8.62;;;;;;;-2.25;53.54;99406.52;356184;111;1961918;-71
2021/03/12 00:41:52;;;;;;;19.31;8.71;;;;;;;-2.27;53.57;99411.12;347845;111;2880983;-70
2021/03/12 00:42:56;;;;;;;14.43;8.04;;;;;;;-2.28;53.62;99397.03;357631;111;1961967;-70
2021/03/12 00:44:03;;;;;;;14.31;7.17;;;;;;;-2.28;53.71;99418.20;355105;111;1961949;-70
2021/03/12 00:45:14;;;;;;;15.62;7.82;;;;;;;-2.25;53.45;99403.88;356590;111;1964990;-71
2021/03/12 00:46:21;;;;;;;16.33;7.90;;;;;;;-2.24;53.39;99403.75;351174;114;1961958;-71
2021/03/12 00:47:26;;;;;;;15.41;7.41;;;;;;;-2.25;53.45;99401.23;333462;113;2254021;-71
2021/03/12 00:48:32;;;;;;;16.07;7.72;;;;;;;-2.25;53.54;99404.73;355594;111;1961922;-70
2021/03/12 00:49:39;;;;;;;14.24;6.92;;;;;;;-2.22;53.39;99400.99;352354;113;1961928;-71
2021/03/12 00:50:46;;;;;;;19.91;7.41;;;;;;;-2.25;53.48;99398.58;305400;115;2242023;-71
2021/03/12 00:51:54;;;;;;;15.34;7.22;;;;;;;-2.25;53.47;99401.23;316967;112;2954036;-71
2021/03/12 00:53:01;;;;;;;15.66;7.50;;;;;;;-2.23;53.41;99394.00;357260;111;1962000;-71
2021/03/12 00:54:06;;;;;;;15.78;8.51;;;;;;;-2.27;53.44;99387.31;356176;111;1963966;-71
2021/03/12 00:55:12;;;;;;;14.87;7.41;;;;;;;-2.28;53.51;99390.91;340316;111;2316918;-71
2021/03/12 00:56:21;;;;;;;19.39;7.57;;;;;;;-2.26;53.43;99396.92;356542;111;1962049;-71
2021/03/12 00:57:27;;;;;;;16.28;8.02;;;;;;;-2.27;53.49;99393.44;355525;111;1962022;-70
2021/03/12 00:58:32;;;;;;;14.88;7.78;;;;;;;-2.29;53.55;99378.66;355047;111;1961892;-71
2021/03/12 00:59:39;;;;;;;13.52;6.61;;;;;;;-2.28;53.42;99353.87;313026;111;2873069;-71
2021/03/12 01:00:46;;;;;;;16.56;7.08;;;;;;;-2.25;53.38;99382.70;358133;111;1963955;-71
2021/03/12 01:01:52;;;;;;;14.85;6.87;;;;;;;-2.23;53.25;99378.13;346503;114;1963070;-72
2021/03/12 01:02:58;;;;;;;19.95;7.72;;;;;;;-2.26;53.22;99359.88;323636;112;2214971;-71
2021/03/12 01:04:04;;;;;;;17.18;7.35;;;;;;;-2.27;53.34;99369.63;354875;112;1962024;-71
2021/03/12 01:05:11;;;;;;;14.58;8.76;;;;;;;-2.25;53.31;99365.05;353694;112;1962005;-71
2021/03/12 01:06:18;;;;;;;16.33;9.02;;;;;;;-2.23;53.10;99344.56;352786;112;1962007;-71
2021/03/12 01:07:25;;;;;;;16.64;8.33;;;;;;;-2.23;53.14;99357.80;313354;112;2798923;-71
2021/03/12 01:08:30;;;;;;;25.62;7.87;;;;;;;-2.27;53.33;99353.75;337034;112;1961996;-71
2021/03/12 01:09:36;;;;;;;18.61;7.37;;;;;;;-2.25;53.28;99359.76;351938;112;1961952;-71
2021/03/12 01:10:44;;;;;;;13.34;6.33;;;;;;;-2.27;53.33;99340.53;315079;112;2096008;-71
2021/03/12 01:11:49;;;;;;;13.97;6.96;;;;;;;-2.25;53.16;99346.53;352471;112;1961904;-70
2021/03/12 01:12:55;;;;;;;14.46;7.99;;;;;;;-2.26;53.22;99342.19;350433;113;1961894;-71
2021/03/12 01:14:02;;;;;;;14.76;7.45;;;;;;;-2.28;53.30;99359.16;316254;111;2943988;-72
2021/03/12 01:15:13;;;;;;;14.78;8.16;;;;;;;-2.29;53.42;99353.05;357069;111;1961939;-71
2021/03/12 01:16:20;;;;;;;15.92;8.02;;;;;;;-2.25;53.23;99340.38;341780;111;2338034;-71
2021/03/12 01:17:26;;;;;;;14.53;7.54;;;;;;;-2.25;53.21;99337.73;354745;111;1961976;-71
2021/03/12 01:18:31;;;;;;;13.61;7.49;;;;;;;-2.26;53.22;99346.65;357147;111;1961979;-71
2021/03/12 01:19:38;;;;;;;13.74;7.51;;;;;;;-2.29;53.36;99320.47;343296;111;2242940;-72
2021/03/12 01:20:45;;;;;;;15.75;7.36;;;;;;;-2.25;53.21;99343.02;356610;111;1961978;-71
2021/03/12 01:21:53;;;;;;;14.50;6.23;;;;;;;-2.24;53.15;99337.61;303636;114;2236150;-71
2021/03/12 01:23:00;;;;;;;15.04;8.17;;;;;;;-2.23;53.09;99319.92;354555;111;1962943;-71
2021/03/12 01:24:08;;;;;;;13.86;7.43;;;;;;;-2.25;52.98;99343.89;312976;114;2047131;-70
2021/03/12 01:25:19;;;;;;;16.17;7.77;;;;;;;-2.28;53.23;99360.00;309051;116;2669948;-70
2021/03/12 01:26:26;;;;;;;13.34;6.97;;;;;;;-2.31;53.32;99356.79;356890;111;1963000;-71
2021/03/12 01:27:40;;;;;;;14.66;7.53;;;;;;;-2.32;53.30;99355.95;326358;111;2592946;-71
2021/03/12 01:28:47;;;;;;;11.85;6.04;;;;;;;-2.29;53.27;99376.02;357023;111;1961964;-71
2021/03/12 01:29:54;;;;;;;16.03;9.29;;;;;;;-2.24;52.97;99352.66;336759;113;2202968;-71
2021/03/12 01:31:01;;;;;;;14.37;6.41;;;;;;;-2.29;53.05;99347.75;345006;115;1961976;-71
2021/03/12 01:32:09;;;;;;;17.77;8.43;;;;;;;-2.29;53.06;99358.33;353750;112;1963849;-71
2021/03/12 01:33:28;;;;;;;14.07;7.44;;;;;;;-2.28;53.08;99356.52;355236;112;1961929;-71
2021/03/12 01:34:35;;;;;;;14.75;5.95;;;;;;;-2.30;53.17;99359.31;335162;117;1962103;-70
2021/03/12 01:35:41;;;;;;;15.73;7.44;;;;;;;-2.27;53.02;99364.34;334072;117;1961884;-71
2021/03/12 01:36:48;;;;;;;22.33;7.13;;;;;;;-2.24;52.79;99360.59;338032;117;1962001;-71
2021/03/12 01:37:53;;;;;;;17.66;8.12;;;;;;;-2.22;52.67;99354.20;322518;117;2308019;-71
2021/03/12 01:38:58;;;;;;;14.91;7.07;;;;;;;-2.23;52.68;99367.55;310572;117;1962974;-71
2021/03/12 01:40:07;;;;;;;13.24;6.54;;;;;;;-2.21;52.71;99373.55;336175;118;1962022;-73
2021/03/12 01:41:17;;;;;;;13.60;6.60;;;;;;;-2.22;52.75;99379.83;331516;120;1962951;-71
2021/03/12 01:42:23;;;;;;;13.88;6.64;;;;;;;-2.23;52.80;99376.31;328818;120;1961899;-71
2021/03/12 01:43:29;;;;;;;26.25;8.12;;;;;;;-2.22;52.86;99350.72;334355;118;1964028;-72
2021/03/12 01:44:35;;;;;;;15.80;7.23;;;;;;;-2.24;52.83;99356.13;318058;117;2438930;-72
2021/03/12 01:45:42;;;;;;;15.32;7.18;;;;;;;-2.36;53.06;99337.83;312699;119;1962009;-71
2021/03/12 01:46:49;;;;;;;16.34;7.12;;;;;;;-2.30;53.13;99324.92;308689;118;2563018;-71
2021/03/12 01:47:56;;;;;;;17.10;7.22;;;;;;;-2.24;52.98;99336.78;338932;117;1961896;-71
2021/03/12 01:49:02;;;;;;;13.03;6.96;;;;;;;-2.22;52.86;99334.84;316536;117;2454842;-70
2021/03/12 01:50:09;;;;;;;14.37;7.07;;;;;;;-2.19;52.66;99346.97;337519;117;1961822;-71
2021/03/12 01:51:17;;;;;;;17.36;7.16;;;;;;;-2.21;52.73;99329.41;319735;117;1962047;-71
2021/03/12 01:52:24;;;;;;;15.76;6.95;;;;;;;-2.21;52.74;99324.11;340531;116;1962005;-72
2021/03/12 01:53:33;;;;;;;12.63;6.14;;;;;;;-2.21;52.72;99304.77;304269;118;2640035;-71
2021/03/12 01:54:39;;;;;;;14.44;7.07;;;;;;;-2.20;52.67;99309.07;311630;119;2880045;-71
2021/03/12 01:55:46;;;;;;;14.69;7.18;;;;;;;-2.23;52.71;99293.47;336834;117;1962027;-71
2021/03/12 01:56:52;;;;;;;15.71;7.46;;;;;;;-2.20;52.65;99293.19;335569;119;1962065;-71
2021/03/12 01:58:15;;;;;;;13.62;7.16;;;;;;;-2.22;52.79;99305.74;336678;117;1962331;-71
2021/03/12 01:59:22;;;;;;;13.29;6.17;;;;;;;-2.23;52.73;99304.05;299094;117;2159584;-71
2021/03/12 02:00:32;;;;;;;13.59;5.89;;;;;;;-2.26;52.82;99285.80;325056;110;2245988;-71
2021/03/12 02:01:42;;;;;;;13.36;6.82;;;;;;;-2.25;52.82;99298.91;354431;111;1961985;-71
2021/03/12 02:02:50;;;;;;;15.36;6.45;;;;;;;-2.25;52.72;99314.78;328355;111;2233009;-70
2021/03/12 02:03:58;;;;;;;12.17;6.16;;;;;;;-2.26;52.77;99313.09;344240;116;1963986;-71
2021/03/12 02:05:15;;;;;;;14.88;7.77;;;;;;;-2.28;52.90;99309.73;294437;114;2221845;-71
2021/03/12 02:06:22;;;;;;;11.79;6.03;;;;;;;-2.32;53.01;99324.21;359006;111;1961993;-72
2021/03/12 02:07:27;;;;;;;13.38;6.32;;;;;;;-2.31;53.10;99304.71;313935;111;2209998;-69
2021/03/12 02:08:35;;;;;;;11.05;5.87;;;;;;;-2.30;53.05;99292.31;353775;111;1961913;-71
2021/03/12 02:09:48;;;;;;;16.13;7.93;;;;;;;-2.34;53.12;99299.69;358168;111;1962010;-71
2021/03/12 02:10:55;;;;;;;14.56;6.72;;;;;;;-2.32;53.06;99296.92;348300;115;1961986;-71
2021/03/12 02:12:07;;;;;;;14.55;6.98;;;;;;;-2.35;53.25;99305.13;319125;111;2099098;-71
2021/03/12 02:13:28;;;;;;;17.80;6.49;;;;;;;-2.36;53.30;99292.86;357329;111;1961953;-71
2021/03/12 02:14:38;;;;;;;17.77;7.84;;;;;;;-2.35;53.19;99299.84;335121;111;1963023;-71
2021/03/12 02:15:49;;;;;;;20.80;8.03;;;;;;;-2.41;53.38;99273.90;322833;111;2224999;-72
2021/03/12 02:17:04;;;;;;;14.81;7.84;;;;;;;-2.39;53.33;99291.31;357480;111;1963072;-71
2021/03/12 02:18:14;;;;;;;18.80;6.54;;;;;;;-2.42;53.39;99286.30;357649;111;1961985;-71
2021/03/12 02:19:50;;;;;;;15.77;6.59;;;;;;;-2.42;53.34;99301.33;355017;110;1959686;-70
2021/03/12 02:21:21;;;;;;;17.32;8.09;;;;;;;-2.44;53.49;99283.77;358811;110;1961965;-71
2021/03/12 02:22:29;;;;;;;19.53;7.08;;;;;;;-2.47;53.64;99277.91;355096;111;1963943;-70
2021/03/12 02:23:53;;;;;;;20.48;6.54;;;;;;;-2.47;53.70;99272.62;358009;111;1962990;-70
2021/03/12 02:25:02;;;;;;;12.70;6.03;;;;;;;-2.47;53.74;99285.84;350317;113;1962078;-70
2021/03/12 02:26:36;;;;;;;17.58;7.39;;;;;;;-2.48;53.75;99269.15;350605;111;1961977;-70
2021/03/12 02:27:43;;;;;;;12.76;7.12;;;;;;;-2.47;53.58;99276.10;355881;112;1961023;-70
2021/03/12 02:28:52;;;;;;;16.19;8.06;;;;;;;-2.51;53.72;99271.23;323092;111;2688908;-70
2021/03/12 02:30:00;;;;;;;16.07;7.47;;;;;;;-2.54;53.86;99274.98;356633;111;1962018;-71
2021/03/12 02:31:09;;;;;;;13.63;6.80;;;;;;;-2.55;54.00;99281.22;355903;111;1962007;-70
2021/03/12 02:32:24;;;;;;;16.08;7.97;;;;;;;-2.51;53.80;99258.02;356303;111;1961987;-70
2021/03/12 02:33:32;;;;;;;17.18;6.72;;;;;;;-2.54;53.82;99267.05;356472;111;1962030;-71
2021/03/12 02:34:41;;;;;;;14.80;6.27;;;;;;;-2.52;53.88;99251.03;349986;113;1962019;-72
2021/03/12 02:35:54;;;;;;;19.68;7.87;;;;;;;-2.51;53.76;99266.77;351208;112;1962991;-71
2021/03/12 02:37:08;;;;;;;16.24;6.50;;;;;;;-2.51;53.78;99272.06;356589;112;1962097;-72
2021/03/12 02:38:16;;;;;;;20.43;6.59;;;;;;;-2.52;53.74;99257.15;315369;111;2805985;-71
2021/03/12 02:39:25;;;;;;;15.63;6.14;;;;;;;-2.51;53.79;99273.88;357133;113;1961942;-70
2021/03/12 02:40:35;;;;;;;17.96;7.09;;;;;;;-2.50;53.69;99246.45;357315;111;1962894;-71
2021/03/12 02:41:45;;;;;;;14.48;6.78;;;;;;;-2.48;53.62;99257.73;357039;111;1961939;-71
2021/03/12 02:42:53;;;;;;;17.51;6.47;;;;;;;-2.55;53.79;99272.45;318276;113;2778966;-71
2021/03/12 02:44:00;;;;;;;22.60;8.34;;;;;;;-2.55;53.87;99289.15;355558;111;1961905;-71
2021/03/12 02:45:11;;;;;;;19.72;7.29;;;;;;;-2.56;53.79;99276.91;356294;113;1964027;-70
2021/03/12 02:46:19;;;;;;;21.01;7.17;;;;;;;-2.60;53.80;99275.48;353907;111;1961989;-71
2021/03/12 02:47:30;;;;;;;15.98;8.03;;;;;;;-2.58;53.81;99273.55;318645;112;2104303;-71
2021/03/12 02:48:40;;;;;;;21.41;7.72;;;;;;;-2.58;53.91;99280.66;341539;118;1963034;-71
2021/03/12 02:49:46;;;;;;;17.31;7.65;;;;;;;-2.60;53.89;99278.13;350927;113;1963927;-70
2021/03/12 02:50:52;;;;;;;17.90;7.12;;;;;;;-2.59;53.92;99273.67;357461;112;1961974;-70
2021/03/12 02:52:00;;;;;;;16.45;6.92;;;;;;;-2.58;53.78;99262.98;354998;111;1961905;-70
2021/03/12 02:53:07;;;;;;;16.79;6.79;;;;;;;-2.59;53.88;99263.95;355688;111;1965985;-70
2021/03/12 02:54:13;;;;;;;20.12;8.43;;;;;;;-2.59;53.98;99249.88;354988;112;1961995;-73
2021/03/12 02:55:21;;;;;;;14.09;6.57;;;;;;;-2.58;53.84;99248.92;317507;112;2742998;-71
2021/03/12 02:56:32;;;;;;;21.54;7.54;;;;;;;-2.56;53.76;99252.28;356449;112;1962143;-71
2021/03/12 02:57:39;;;;;;;16.71;7.45;;;;;;;-2.58;53.85;99262.14;357417;111;1963020;-71
2021/03/12 02:59:06;;;;;;;14.72;7.38;;;;;;;-2.58;53.80;99262.14;353444;113;1962010;-71
2021/03/12 03:00:24;;;;;;;13.89;6.96;;;;;;;-2.62;53.95;99239.56;353703;113;1961936;-71
2021/03/12 03:01:36;;;;;;;16.78;7.58;;;;;;;-2.58;53.76;99246.28;355734;113;1962937;-71
2021/03/12 03:02:53;;;;;;;14.78;7.11;;;;;;;-2.58;53.72;99247.11;356823;111;1962013;-71
2021/03/12 03:04:01;;;;;;;14.83;6.28;;;;;;;-2.62;53.90;99251.01;325699;113;1962958;-71
2021/03/12 03:05:12;;;;;;;16.14;7.18;;;;;;;-2.61;53.79;99252.67;353524;112;1962024;-72
2021/03/12 03:06:22;;;;;;;14.46;7.46;;;;;;;-2.58;53.69;99243.63;357033;113;1961952;-72
2021/03/12 03:07:29;;;;;;;13.47;6.78;;;;;;;-2.60;53.70;99245.56;314758;113;2843096;-71
2021/03/12 03:08:37;;;;;;;18.11;7.61;;;;;;;-2.61;53.78;99242.09;353811;113;1961999;-72
2021/03/12 03:09:44;;;;;;;14.34;7.19;;;;;;;-2.64;53.86;99241.53;334230;112;2203992;-72
2021/03/12 03:10:54;;;;;;;17.69;7.28;;;;;;;-2.66;54.05;99255.70;314881;113;2097427;-72
2021/03/12 03:12:00;;;;;;;14.78;5.82;;;;;;;-2.62;53.78;99237.78;352078;113;1961955;-71
2021/03/12 03:13:09;;;;;;;19.17;7.58;;;;;;;-2.61;53.75;99210.36;353346;112;1961971;-72
2021/03/12 03:14:16;;;;;;;17.34;7.58;;;;;;;-2.62;53.73;99229.85;326604;112;2591935;-71
2021/03/12 03:15:23;;;;;;;16.90;7.87;;;;;;;-2.63;53.80;99227.33;356902;110;1963937;-72
2021/03/12 03:16:35;;;;;;;14.74;7.81;;;;;;;-2.66;53.97;99228.43;360450;110;1961967;-72
2021/03/12 03:17:42;;;;;;;17.50;7.33;;;;;;;-2.69;54.16;99236.63;361363;110;1962019;-72
2021/03/12 03:18:49;;;;;;;14.58;6.74;;;;;;;-2.69;54.20;99228.70;360845;110;1969073;-73
2021/03/12 03:19:57;;;;;;;15.23;7.14;;;;;;;-2.70;54.21;99235.80;353573;113;1964041;-72
2021/03/12 03:21:04;;;;;;;14.03;6.86;;;;;;;-2.69;54.17;99228.70;354655;112;1959804;-71
2021/03/12 03:22:11;;;;;;;15.97;7.56;;;;;;;-2.68;54.12;99222.43;310649;116;2676886;-71
2021/03/12 03:23:17;;;;;;;15.39;7.48;;;;;;;-2.64;54.02;99228.31;343616;115;1961987;-71
2021/03/12 03:24:24;;;;;;;13.31;6.97;;;;;;;-2.68;53.97;99231.19;307321;116;2733079;-71
2021/03/12 03:25:30;;;;;;;14.89;7.61;;;;;;;-2.69;54.18;99229.53;342828;116;1963998;-71
2021/03/12 03:26:37;;;;;;;16.48;6.88;;;;;;;-2.70;54.17;99217.30;343361;116;1962961;-72
2021/03/12 03:27:42;;;;;;;15.16;7.21;;;;;;;-2.69;54.22;99218.13;303962;116;2203522;-71
2021/03/12 03:28:53;;;;;;;18.04;7.99;;;;;;;-2.70;54.25;99212.00;340945;117;1962961;-70
2021/03/12 03:30:03;;;;;;;14.14;6.15;;;;;;;-2.68;54.22;99220.62;349389;114;1961970;-70
2021/03/12 03:31:09;;;;;;;12.24;6.72;;;;;;;-2.70;54.15;99224.36;348190;114;1962027;-71
2021/03/12 03:32:16;;;;;;;13.02;6.74;;;;;;;-2.68;54.04;99223.27;329452;114;1961932;-72
2021/03/12 03:33:21;;;;;;;16.16;6.56;;;;;;;-2.67;53.97;99218.84;348392;114;1963024;-71
2021/03/12 03:34:27;;;;;;;14.00;6.58;;;;;;;-2.71;54.04;99209.48;349793;114;1962911;-71
2021/03/12 03:35:33;;;;;;;16.96;7.48;;;;;;;-2.74;54.23;99205.30;333640;114;2316998;-71
2021/03/12 03:36:42;;;;;;;14.21;6.86;;;;;;;-2.75;54.29;99213.34;344423;117;1961917;-71
2021/03/12 03:37:48;;;;;;;16.40;8.29;;;;;;;-2.76;54.36;99199.30;330848;120;1965055;-71
2021/03/12 03:38:53;;;;;;;13.80;7.66;;;;;;;-2.79;54.37;99204.02;336870;118;1961979;-71
2021/03/12 03:40:00;;;;;;;15.41;7.66;;;;;;;-2.81;54.48;99209.42;330710;120;1962948;-71
2021/03/12 03:41:08;;;;;;;15.01;7.06;;;;;;;-2.79;54.36;99196.92;341983;113;1960685;-70
2021/03/12 03:42:15;;;;;;;15.97;7.84;;;;;;;-2.79;54.30;99202.20;328291;116;2358948;-71
2021/03/12 03:43:30;;;;;;;13.48;7.28;;;;;;;-2.82;54.40;99206.94;339424;117;1961914;-71
2021/03/12 03:44:37;;;;;;;14.48;6.55;;;;;;;-2.84;54.52;99191.20;342453;116;1962058;-71
2021/03/12 03:45:44;;;;;;;13.48;6.17;;;;;;;-2.83;54.38;99182.31;342986;118;1961905;-72
2021/03/12 03:46:54;;;;;;;15.19;7.48;;;;;;;-2.84;54.29;99196.48;324215;118;2359966;-71
2021/03/12 03:48:02;;;;;;;17.89;8.14;;;;;;;-2.83;54.34;99184.09;302468;116;2171352;-72
2021/03/12 03:49:11;;;;;;;15.03;6.73;;;;;;;-2.89;54.46;99177.53;342809;118;1962029;-70
2021/03/12 03:50:20;;;;;;;;;;;;;;;-2.88;54.36;99173.94;330891;118;1963051;-71
2021/03/12 03:51:26;;;;;;;14.26;6.91;;;;;;;-2.89;54.36;99149.30;339398;118;1961095;-71
2021/03/12 03:52:33;;;;;;;13.16;6.71;;;;;;;-2.90;54.39;99176.70;340880;118;1962028;-70
2021/03/12 03:53:41;;;;;;;18.38;7.50;;;;;;;-2.89;54.31;99166.97;341458;117;1961943;-70
2021/03/12 03:54:49;;;;;;;17.18;8.41;;;;;;;-2.90;54.27;99175.88;318882;118;2488998;-71
2021/03/12 03:55:58;;;;;;;14.97;7.19;;;;;;;-3.01;54.61;99176.80;337137;118;1961945;-71
2021/03/12 03:57:05;;;;;;;15.57;7.49;;;;;;;-2.99;54.54;99189.86;340793;117;1961970;-72
2021/03/12 03:58:14;;;;;;;18.54;8.37;;;;;;;-2.95;54.32;99184.19;335355;120;1962996;-72
2021/03/12 03:59:21;;;;;;;14.01;6.95;;;;;;;-2.93;54.29;99187.55;325112;117;1961958;-71
2021/03/12 04:00:29;;;;;;;14.01;6.29;;;;;;;-2.95;54.37;99154.30;330353;118;2227945;-73
2021/03/12 04:01:39;;;;;;;15.28;7.37;;;;;;;-2.94;54.25;99170.03;341778;118;1961955;-71
2021/03/12 04:02:48;;;;;;;17.36;7.86;;;;;;;-2.97;54.37;99191.41;314199;118;2568998;-71
2021/03/12 04:03:59;;;;;;;18.74;7.83;;;;;;;-2.98;54.36;99199.48;340803;118;1964094;-71
2021/03/12 04:05:06;;;;;;;15.54;8.01;;;;;;;-2.97;54.35;99172.08;338353;118;1962061;-71
2021/03/12 04:06:12;;;;;;;13.78;6.87;;;;;;;-2.99;54.30;99206.58;344075;116;1961960;-72
2021/03/12 04:07:20;;;;;;;17.87;6.47;;;;;;;-3.01;54.43;99192.66;352625;114;1960990;-71
2021/03/12 04:08:30;;;;;;;15.09;7.91;;;;;;;-2.98;54.30;99197.67;350992;114;1962035;-71
2021/03/12 04:09:36;;;;;;;16.26;7.88;;;;;;;-2.96;54.29;99192.27;346208;115;1962086;-71
2021/03/12 04:10:43;;;;;;;13.57;7.30;;;;;;;-2.98;54.40;99191.55;332618;115;2296017;-71
2021/03/12 04:11:49;;;;;;;20.59;8.43;;;;;;;-3.00;54.50;99182.91;338278;117;1961947;-71
2021/03/12 04:12:58;;;;;;;16.44;7.72;;;;;;;-3.00;54.64;99186.39;344747;115;1961978;-71
2021/03/12 04:14:05;;;;;;;16.17;7.55;;;;;;;-3.03;54.70;99180.54;352241;114;1961925;-71
2021/03/12 04:15:11;;;;;;;14.39;7.36;;;;;;;-3.00;54.61;99185.56;309817;114;2179683;-71
2021/03/12 04:16:18;;;;;;;18.31;8.46;;;;;;;-2.98;54.45;99200.31;352637;114;1961944;-71
2021/03/12 04:17:25;;;;;;;18.02;9.02;;;;;;;-3.00;54.53;99211.98;327599;115;1961084;-71
2021/03/12 04:18:32;;;;;;;13.17;7.92;;;;;;;-2.99;54.54;99225.08;350325;115;1963017;-71
2021/03/12 04:19:39;;;;;;;15.03;7.24;;;;;;;-2.96;54.48;99203.67;314112;114;2122522;-71
2021/03/12 04:20:47;;;;;;;14.46;8.05;;;;;;;-2.93;54.41;99202.57;350991;114;1965494;-71
2021/03/12 04:22:03;;;;;;;15.26;7.14;;;;;;;-2.98;54.56;99202.13;343390;116;1962920;-71
2021/03/12 04:23:11;;;;;;;21.44;7.89;;;;;;;-2.95;54.43;99204.50;309713;116;2197033;-71
2021/03/12 04:24:17;;;;;;;15.67;7.31;;;;;;;-2.97;54.47;99199.34;346082;113;1961731;-71
2021/03/12 04:25:24;;;;;;;18.53;8.08;;;;;;;-2.97;54.50;99196.69;351723;112;1962017;-70
2021/03/12 04:26:30;;;;;;;15.61;8.29;;;;;;;-3.00;54.48;99183.75;350917;112;1961983;-71
2021/03/12 04:27:38;;;;;;;15.81;7.86;;;;;;;-2.93;54.27;99199.92;354830;113;1961078;-71
2021/03/12 04:28:44;;;;;;;15.46;7.71;;;;;;;-2.92;54.29;99196.30;353263;113;1961074;-71
2021/03/12 04:29:51;;;;;;;18.06;7.64;;;;;;;-2.94;54.24;99193.81;339637;119;1965408;-71
2021/03/12 04:30:58;;;;;;;15.74;7.93;;;;;;;-2.90;54.21;99207.59;351416;113;1961960;-71
2021/03/12 04:32:07;;;;;;;14.17;6.37;;;;;;;-2.92;54.16;99199.78;322385;113;2608996;-71
2021/03/12 04:33:16;;;;;;;15.58;6.46;;;;;;;-2.92;54.16;99186.56;348274;114;1962002;-71
2021/03/12 04:34:25;;;;;;;18.62;7.69;;;;;;;-2.91;54.14;99206.76;340442;117;1961981;-71
2021/03/12 04:35:30;;;;;;;16.35;6.94;;;;;;;-2.95;54.19;99184.19;351873;113;1961953;-71
2021/03/12 04:36:39;;;;;;;14.66;6.69;;;;;;;-2.97;54.28;99180.84;312424;113;2799947;-71
2021/03/12 04:37:45;;;;;;;22.08;8.27;;;;;;;-2.93;54.11;99208.69;352783;113;1962009;-72
2021/03/12 04:38:53;;;;;;;14.45;7.10;;;;;;;-2.96;54.17;99201.03;335294;113;1961866;-71
2021/03/12 04:39:58;;;;;;;15.42;8.06;;;;;;;-2.98;54.21;99202.95;354051;110;1961983;-72
2021/03/12 04:41:06;;;;;;;19.44;7.48;;;;;;;-2.94;54.07;99203.52;333309;114;2262959;-73
2021/03/12 04:42:12;;;;;;;17.51;7.41;;;;;;;-2.96;54.14;99206.31;346551;113;1963051;-71
2021/03/12 04:43:21;;;;;;;16.18;7.33;;;;;;;-2.98;54.13;99207.41;327710;116;1961949;-72
2021/03/12 04:44:27;;;;;;;17.95;7.11;;;;;;;-2.99;54.29;99216.28;341824;116;1961906;-71
2021/03/12 04:45:33;;;;;;;15.42;8.00;;;;;;;-3.01;54.33;99229.65;335424;113;2245003;-72
2021/03/12 04:46:41;;;;;;;16.76;7.54;;;;;;;-2.99;54.25;99211.86;351050;113;1961969;-73
2021/03/12 04:47:48;;;;;;;15.26;7.27;;;;;;;-2.97;54.19;99224.92;335425;113;1961969;-72
2021/03/12 04:48:55;;;;;;;21.52;8.61;;;;;;;-3.02;54.26;99188.31;347368;114;1961958;-71
2021/03/12 04:50:05;;;;;;;16.44;8.17;;;;;;;-3.00;54.09;99199.60;345728;114;1961944;-72
2021/03/12 04:51:12;;;;;;;15.90;8.18;;;;;;;-2.99;54.11;99206.58;344626;114;1962043;-72
2021/03/12 04:52:19;;;;;;;15.22;9.70;;;;;;;-3.03;54.46;99191.11;347268;115;1962034;-72
2021/03/12 04:53:30;;;;;;;15.95;8.23;;;;;;;-3.03;54.41;99214.89;358680;110;1964962;-71
2021/03/12 04:54:37;;;;;;;15.86;7.61;;;;;;;-3.01;54.38;99195.30;358936;110;1964012;-71
2021/03/12 04:55:43;;;;;;;12.56;6.24;;;;;;;-3.02;54.43;99219.20;317260;112;2073657;-71
2021/03/12 04:56:51;;;;;;;20.15;7.95;;;;;;;-3.02;54.45;99180.39;317059;116;2601113;-71
2021/03/12 04:57:57;;;;;;;16.17;8.21;;;;;;;-3.02;54.45;99174.27;345564;114;1961935;-71
2021/03/12 04:59:04;;;;;;;16.42;8.98;;;;;;;-3.02;54.31;99183.03;350975;113;1961976;-72
2021/03/12 05:00:15;;;;;;;21.46;7.89;;;;;;;-3.03;54.45;99188.47;339858;113;1961833;-72
2021/03/12 05:01:22;;;;;;;17.25;7.39;;;;;;;-3.01;54.42;99197.11;351304;113;1963977;-71
2021/03/12 05:02:29;;;;;;;16.56;8.03;;;;;;;-2.99;54.29;99195.14;324994;114;1962017;-72
2021/03/12 05:03:38;;;;;;;17.51;8.19;;;;;;;-3.00;54.21;99215.45;326796;113;2876016;-71
2021/03/12 05:04:55;;;;;;;17.31;8.17;;;;;;;-2.98;54.16;99199.48;344670;115;1961954;-71
2021/03/12 05:06:01;;;;;;;18.58;7.92;;;;;;;-3.01;54.24;99203.22;324057;113;2509993;-72
2021/03/12 05:07:08;;;;;;;19.07;7.28;;;;;;;-2.99;54.18;99200.43;336567;116;1962037;-71
2021/03/12 05:08:20;;;;;;;16.58;8.63;;;;;;;-3.01;54.25;99197.11;337376;115;2908001;-72
2021/03/12 05:09:27;;;;;;;14.82;8.15;;;;;;;-3.03;54.24;99201.68;348728;114;1961943;-71
2021/03/12 05:10:33;;;;;;;19.11;8.09;;;;;;;-3.04;54.28;99206.13;323107;117;2420839;-71
2021/03/12 05:11:42;;;;;;;15.75;8.10;;;;;;;-3.07;54.56;99216.10;342930;116;1960908;-71